createdAt,value
2019-02-18T00:01:52.001Z,8.93
2019-02-18T00:06:55.861Z,10.17
2019-02-18T00:11:59.675Z,9.77
2019-02-18T00:17:03.556Z,9.40
2019-02-18T00:22:07.345Z,9.77
2019-02-18T00:27:11.205Z,9.87
2019-02-18T00:32:15.041Z,9.13
2019-02-18T00:37:24.462Z,9.53
2019-02-18T00:42:24.752Z,10.40
2019-02-18T00:47:28.581Z,10.37
2019-02-18T00:52:32.385Z,10.67
2019-02-18T00:57:36.249Z,10.83
2019-02-18T01:02:40.056Z,11.10
2019-02-18T01:07:43.857Z,11.57
2019-02-18T01:12:47.824Z,11.43
2019-02-18T01:17:51.925Z,11.07
2019-02-18T01:22:55.765Z,10.17
2019-02-18T01:27:59.955Z,11.07
2019-02-18T01:33:03.880Z,11.37
2019-02-18T01:38:07.749Z,11.70
2019-02-18T01:43:11.623Z,11.73
2019-02-18T01:48:15.515Z,10.63
2019-02-18T01:53:19.419Z,12.13
2019-02-18T01:58:23.552Z,11.43
2019-02-18T02:03:27.452Z,10.27
2019-02-18T02:08:31.259Z,10.43
2019-02-18T02:13:36.507Z,9.87
2019-02-18T02:18:40.471Z,10.97
2019-02-18T02:23:44.262Z,9.37
2019-02-18T02:28:48.214Z,10.60
2019-02-18T02:33:52.020Z,9.53
2019-02-18T02:38:55.825Z,10.63
2019-02-18T02:43:59.617Z,9.77
2019-02-18T02:49:03.406Z,10.13
2019-02-18T02:54:07.210Z,10.10
2019-02-18T02:59:11.032Z,9.80
2019-02-18T03:04:14.819Z,10.17
2019-02-18T03:09:18.621Z,10.67
2019-02-18T03:14:22.520Z,10.13
2019-02-18T03:19:26.331Z,9.57
2019-02-18T03:24:30.157Z,9.80
2019-02-18T03:30:15.118Z,10.30
2019-02-18T03:35:18.973Z,10.10
2019-02-18T03:40:22.863Z,8.90
2019-02-18T03:45:26.690Z,9.30
2019-02-18T03:50:30.567Z,10.43
2019-02-18T03:55:34.509Z,10.60
2019-02-18T04:00:38.389Z,10.97
2019-02-18T04:05:42.329Z,11.07
2019-02-18T04:10:46.312Z,9.87
2019-02-18T04:15:50.125Z,10.37
2019-02-18T04:20:53.935Z,10.53
2019-02-18T04:25:57.745Z,10.43
2019-02-18T04:31:01.602Z,11.17
2019-02-18T04:36:05.423Z,10.77
2019-02-18T04:41:09.331Z,11.50
2019-02-18T04:46:13.121Z,11.50
2019-02-18T04:51:16.943Z,11.80
2019-02-18T04:56:20.735Z,12.77
2019-02-18T05:01:24.695Z,11.87
2019-02-18T05:06:28.553Z,11.40
2019-02-18T05:11:32.413Z,12.70
2019-02-18T05:16:36.201Z,13.40
2019-02-18T05:21:40.091Z,13.10
2019-02-18T05:26:43.916Z,13.47
2019-02-18T05:31:47.783Z,13.93
2019-02-18T05:36:51.704Z,13.30
2019-02-18T05:41:55.596Z,12.90
2019-02-18T05:46:59.409Z,13.10
2019-02-18T05:52:03.311Z,13.93
2019-02-18T05:57:07.130Z,13.43
2019-02-18T06:02:10.919Z,13.13
2019-02-18T06:07:14.730Z,13.77
2019-02-18T06:12:18.789Z,13.17
2019-02-18T06:17:22.687Z,13.57
2019-02-18T06:22:26.533Z,13.07
2019-02-18T06:27:30.507Z,13.70
2019-02-18T06:32:34.331Z,12.50
2019-02-18T06:37:38.265Z,13.23
2019-02-18T06:42:42.059Z,13.47
2019-02-18T06:47:45.923Z,13.40
2019-02-18T06:52:49.711Z,14.00
2019-02-18T06:58:04.060Z,13.17
2019-02-18T07:03:28.011Z,13.37
2019-02-18T07:08:51.655Z,13.67
2019-02-18T07:13:58.453Z,13.37
2019-02-18T07:19:02.287Z,13.53
2019-02-18T07:24:06.139Z,13.73
2019-02-18T07:29:09.985Z,13.53
2019-02-18T07:34:14.043Z,12.87
2019-02-18T07:39:17.859Z,13.97
2019-02-18T07:44:21.725Z,14.97
2019-02-18T07:49:25.706Z,12.47
2019-02-18T07:54:29.589Z,12.67
2019-02-18T07:59:33.381Z,13.17
2019-02-18T08:04:37.187Z,12.67
2019-02-18T08:09:41.175Z,13.33
2019-02-18T08:14:45.055Z,13.57
2019-02-18T08:19:48.954Z,13.60
2019-02-18T08:24:52.863Z,13.10
2019-02-18T08:29:56.681Z,12.87
2019-02-18T08:35:00.839Z,12.53
2019-02-18T08:40:04.873Z,12.80
2019-02-18T08:45:10.397Z,12.40
2019-02-18T08:50:14.175Z,12.30
2019-02-18T08:55:18.330Z,11.40
2019-02-18T09:00:22.357Z,12.73
2019-02-18T09:05:26.209Z,12.65
2019-02-18T09:10:33.701Z,13.43
2019-02-18T09:15:35.630Z,12.43
2019-02-18T09:20:39.532Z,11.50
2019-02-18T09:25:48.559Z,12.07
2019-02-18T09:30:54.613Z,10.72
2019-02-18T09:35:58.568Z,10.53
2019-02-18T09:41:02.367Z,11.68
2019-02-18T09:46:06.187Z,11.15
2019-02-18T09:51:10.405Z,11.30
2019-02-18T09:56:14.227Z,11.25
2019-02-18T10:01:18.026Z,11.65
2019-02-18T10:06:22.391Z,11.00
2019-02-18T10:11:28.389Z,12.10
2019-02-18T10:16:32.857Z,11.65
2019-02-18T10:21:36.732Z,11.93
2019-02-18T10:26:40.780Z,12.05
2019-02-18T10:31:44.787Z,11.85
2019-02-18T10:36:48.671Z,11.85
2019-02-18T10:41:52.632Z,11.75
2019-02-18T10:46:56.511Z,11.48
2019-02-18T10:52:00.379Z,11.50
2019-02-18T10:57:04.263Z,12.07
2019-02-18T11:02:08.582Z,11.48
2019-02-18T11:07:12.601Z,12.55
2019-02-18T11:12:16.655Z,12.58
2019-02-18T11:17:20.645Z,11.65
2019-02-18T11:22:24.817Z,12.53
2019-02-18T11:27:28.623Z,11.75
2019-02-18T11:32:32.624Z,12.00
2019-02-18T11:37:36.449Z,12.70
2019-02-18T11:42:40.378Z,12.93
2019-02-18T11:47:44.659Z,11.80
2019-02-18T11:52:48.465Z,12.68
2019-02-18T11:57:52.405Z,12.75
2019-02-18T12:03:03.672Z,12.37
2019-02-18T12:08:02.105Z,11.57
2019-02-18T12:13:05.975Z,12.18
2019-02-18T12:18:09.823Z,11.60
2019-02-18T12:23:13.736Z,11.80
2019-02-18T12:28:17.644Z,13.03
2019-02-18T12:33:21.562Z,11.97
2019-02-18T12:38:25.455Z,12.55
2019-02-18T12:43:29.504Z,11.65
2019-02-18T12:48:35.289Z,12.15
2019-02-18T12:53:39.125Z,11.65
2019-02-18T12:58:43.029Z,12.23
2019-02-18T13:03:46.880Z,11.45
2019-02-18T13:08:50.752Z,11.85
2019-02-18T13:13:54.673Z,12.30
2019-02-18T13:18:58.539Z,12.05
2019-02-18T13:24:02.571Z,12.50
2019-02-18T13:29:06.539Z,12.75
2019-02-18T13:34:10.403Z,12.95
2019-02-18T13:39:14.283Z,12.20
2019-02-18T13:44:18.245Z,13.62
2019-02-18T13:49:22.036Z,13.05
2019-02-18T13:54:26.009Z,12.47
2019-02-18T13:59:29.883Z,12.90
2019-02-18T14:04:33.695Z,13.40
2019-02-18T14:09:37.503Z,13.48
2019-02-18T14:14:41.467Z,13.93
2019-02-18T14:19:45.725Z,14.05
2019-02-18T14:24:49.543Z,14.73
2019-02-18T14:29:53.663Z,14.30
2019-02-18T14:34:57.482Z,14.18
2019-02-18T14:40:01.379Z,13.85
2019-02-18T14:45:08.767Z,13.75
2019-02-18T14:50:14.031Z,13.72
2019-02-18T14:55:17.928Z,15.20
2019-02-18T15:00:25.661Z,14.13
2019-02-18T15:05:29.559Z,15.43
2019-02-18T15:10:36.791Z,14.93
2019-02-18T15:15:40.644Z,14.93
2019-02-18T15:20:44.543Z,14.90
2019-02-18T15:25:48.423Z,15.13
2019-02-18T15:30:54.135Z,14.90
2019-02-18T15:35:58.932Z,15.68
2019-02-18T15:41:03.083Z,15.48
2019-02-18T15:46:07.050Z,15.45
2019-02-18T15:51:12.198Z,15.40
2019-02-18T15:56:16.435Z,16.17
2019-02-18T16:01:20.346Z,16.82
2019-02-18T16:06:24.545Z,16.32
2019-02-18T16:11:28.415Z,16.32
2019-02-18T16:16:32.272Z,15.93
2019-02-18T16:21:36.243Z,16.15
2019-02-18T16:26:40.242Z,16.62
2019-02-18T16:31:44.269Z,16.95
2019-02-18T16:36:48.259Z,16.62
2019-02-18T16:41:52.247Z,15.95
2019-02-18T16:46:56.283Z,16.50
2019-02-18T16:52:00.120Z,16.23
2019-02-18T16:57:04.236Z,16.50
2019-02-18T17:02:09.713Z,16.27
2019-02-18T17:07:13.841Z,15.93
2019-02-18T17:12:17.833Z,15.78
2019-02-18T17:17:21.696Z,17.05
2019-02-18T17:22:25.606Z,16.05
2019-02-18T17:27:29.555Z,16.67
2019-02-18T17:32:34.593Z,17.35
2019-02-18T17:37:38.623Z,16.52
2019-02-18T17:42:42.521Z,17.10
2019-02-18T17:47:46.740Z,16.80
2019-02-18T17:52:50.664Z,16.48
2019-02-18T17:57:54.983Z,17.85
2019-02-18T18:02:58.881Z,18.23
2019-02-18T18:08:02.879Z,21.20
2019-02-18T18:13:06.785Z,18.30
2019-02-18T18:18:10.641Z,17.55
2019-02-18T18:23:14.753Z,18.50
2019-02-18T18:28:18.843Z,17.48
2019-02-18T18:33:23.504Z,17.07
2019-02-18T18:38:29.029Z,17.67
2019-02-18T18:43:34.066Z,17.07
2019-02-18T18:48:38.225Z,18.90
2019-02-18T18:53:42.137Z,18.40
2019-02-18T18:58:46.367Z,18.65
2019-02-18T19:03:50.527Z,17.52
2019-02-18T19:08:54.525Z,18.35
2019-02-18T19:13:58.528Z,18.40
2019-02-18T19:19:02.969Z,19.52
2019-02-18T19:24:06.951Z,20.88
2019-02-18T19:29:10.943Z,19.27
2019-02-18T19:34:15.257Z,19.40
2019-02-18T19:39:19.313Z,21.35
2019-02-18T19:44:24.513Z,21.17
2019-02-18T19:49:28.535Z,21.40
2019-02-18T19:54:32.582Z,22.73
2019-02-18T19:59:36.641Z,21.45
2019-02-18T20:04:40.535Z,20.60
2019-02-18T20:09:44.813Z,19.00
2019-02-18T20:14:48.840Z,17.50
2019-02-18T20:19:52.835Z,18.65
2019-02-18T20:24:56.891Z,18.07
2019-02-18T20:30:00.735Z,18.60
2019-02-18T20:35:05.248Z,19.65
2019-02-18T20:40:10.988Z,19.75
2019-02-18T20:45:17.015Z,20.82
2019-02-18T20:50:21.007Z,19.73
2019-02-18T20:55:25.087Z,22.00
2019-02-18T21:00:28.983Z,22.22
2019-02-18T21:05:33.040Z,20.97
2019-02-18T21:10:37.030Z,23.57
2019-02-18T21:15:40.973Z,23.62
2019-02-18T21:20:44.801Z,22.95
2019-02-18T21:25:48.787Z,22.05
2019-02-18T21:30:52.907Z,22.40
2019-02-18T21:35:56.858Z,23.40
2019-02-18T21:41:00.857Z,21.27
2019-02-18T21:46:05.101Z,22.15
2019-02-18T21:51:09.087Z,21.77
2019-02-18T21:56:13.150Z,21.05
2019-02-18T22:01:17.168Z,22.52
2019-02-18T22:06:21.209Z,21.55
2019-02-18T22:11:25.227Z,22.60
2019-02-18T22:16:29.327Z,23.00
2019-02-18T22:21:33.349Z,22.58
2019-02-18T22:26:37.331Z,22.50
2019-02-18T22:31:41.233Z,21.70
2019-02-18T22:36:47.044Z,22.27
2019-02-18T22:41:51.007Z,23.37
2019-02-18T22:46:54.876Z,22.37
2019-02-18T22:51:58.748Z,22.50
2019-02-18T22:57:02.583Z,22.83
2019-02-18T23:02:06.768Z,23.00
2019-02-18T23:07:10.621Z,22.33
2019-02-18T23:12:14.519Z,23.37
2019-02-18T23:17:18.467Z,22.03
2019-02-18T23:22:24.063Z,24.07
2019-02-18T23:27:29.092Z,20.80
2019-02-18T23:32:33.459Z,22.93
2019-02-18T23:37:37.983Z,24.02
2019-02-18T23:42:42.819Z,22.93
2019-02-18T23:47:46.688Z,23.53
2019-02-18T23:52:50.678Z,24.63
2019-02-18T23:57:54.584Z,23.20
